Terminal Aerodrome Forecast
Issued by NWS Raleigh/Durham, NC

Home | Current Version | Previous Version | Text Only | Print | Product List | Glossary On
Versions: 1 2 3 4 5 6 7 8 9 10 11 12 13 14 15 16 17 18 19
000
FTUS42 KRAH 232336
TAFGSO
TAF
KGSO 232336Z 2400/2424 07008KT 2SM RA BR SCT035 BKN060 OVC100
     FM240100 08013KT P6SM -SHRA OVC012
     FM240300 08014KT 2SM SHRA BR BKN003 OVC007
     FM241000 07014KT 5SM SHRA BR OVC008
     FM241300 06010G20KT P6SM VCSH OVC006=

USA.gov is the U.S. government's official web portal to all federal, state and local government web resources and services.